sensor_id;sensor_type;location;lat;lon;timestamp;P1;durP1;ratioP1;P2;durP2;ratioP2
16593;SDS011;8410;52.532;13.336;2024-01-15T00:01:42;12.27;;;10.60;;
16593;SDS011;8410;52.532;13.336;2024-01-15T00:04:10;13.37;;;11.10;;
16593;SDS011;8410;52.532;13.336;2024-01-15T00:06:38;12.27;;;9.73;;
16593;SDS011;8410;52.532;13.336;2024-01-15T00:09:05;12.10;;;10.80;;
16593;SDS011;8410;52.532;13.336;2024-01-15T00:11:33;12.87;;;11.13;;
16593;SDS011;8410;52.532;13.336;2024-01-15T00:14:00;16.23;;;10.93;;
16593;SDS011;8410;52.532;13.336;2024-01-15T00:16:30;13.20;;;11.53;;
16593;SDS011;8410;52.532;13.336;2024-01-15T00:18:58;12.80;;;11.20;;
16593;SDS011;8410;52.532;13.336;2024-01-15T00:21:25;11.10;;;9.97;;
16593;SDS011;8410;52.532;13.336;2024-01-15T00:23:53;9.80;;;8.80;;
16593;SDS011;8410;52.532;13.336;2024-01-15T00:26:21;11.77;;;10.07;;
16593;SDS011;8410;52.532;13.336;2024-01-15T00:28:48;12.63;;;10.70;;
16593;SDS011;8410;52.532;13.336;2024-01-15T00:31:16;11.13;;;9.93;;
16593;SDS011;8410;52.532;13.336;2024-01-15T00:33:45;10.93;;;9.57;;
16593;SDS011;8410;52.532;13.336;2024-01-15T00:36:13;12.10;;;10.13;;
16593;SDS011;8410;52.532;13.336;2024-01-15T00:38:41;10.23;;;8.83;;
16593;SDS011;8410;52.532;13.336;2024-01-15T00:41:08;12.90;;;10.53;;
16593;SDS011;8410;52.532;13.336;2024-01-15T00:43:36;10.00;;;8.90;;
16593;SDS011;8410;52.532;13.336;2024-01-15T00:46:03;12.70;;;10.53;;
16593;SDS011;8410;52.532;13.336;2024-01-15T00:48:31;10.90;;;9.43;;
16593;SDS011;8410;52.532;13.336;2024-01-15T00:51:00;10.43;;;8.93;;
16593;SDS011;8410;52.532;13.336;2024-01-15T00:53:28;11.47;;;9.50;;
16593;SDS011;8410;52.532;13.336;2024-01-15T00:55:55;12.07;;;10.53;;
16593;SDS011;8410;52.532;13.336;2024-01-15T00:58:23;10.53;;;9.07;;
16593;SDS011;8410;52.532;13.336;2024-01-15T01:00:50;11.60;;;9.80;;
16593;SDS011;8410;52.532;13.336;2024-01-15T01:03:18;13.97;;;10.60;;
16593;SDS011;8410;52.532;13.336;2024-01-15T01:05:45;11.03;;;9.13;;
16593;SDS011;8410;52.532;13.336;2024-01-15T01:08:17;11.63;;;9.63;;
16593;SDS011;8410;52.532;13.336;2024-01-15T01:10:44;12.87;;;10.57;;
16593;SDS011;8410;52.532;13.336;2024-01-15T01:13:12;13.50;;;11.03;;
16593;SDS011;8410;52.532;13.336;2024-01-15T01:15:39;10.63;;;9.53;;
16593;SDS011;8410;52.532;13.336;2024-01-15T01:18:07;14.80;;;11.43;;
16593;SDS011;8410;52.532;13.336;2024-01-15T01:20:35;11.50;;;10.03;;
16593;SDS011;8410;52.532;13.336;2024-01-15T01:23:03;11.47;;;9.73;;
16593;SDS011;8410;52.532;13.336;2024-01-15T01:25:32;12.80;;;11.50;;
16593;SDS011;8410;52.532;13.336;2024-01-15T01:28:00;12.13;;;9.10;;
16593;SDS011;8410;52.532;13.336;2024-01-15T01:30:27;12.67;;;9.97;;
16593;SDS011;8410;52.532;13.336;2024-01-15T01:32:55;13.07;;;10.50;;
16593;SDS011;8410;52.532;13.336;2024-01-15T01:35:22;12.70;;;10.27;;
16593;SDS011;8410;52.532;13.336;2024-01-15T01:37:50;12.37;;;9.50;;
16593;SDS011;8410;52.532;13.336;2024-01-15T01:40:17;13.20;;;11.63;;
16593;SDS011;8410;52.532;13.336;2024-01-15T01:42:47;12.87;;;11.47;;
16593;SDS011;8410;52.532;13.336;2024-01-15T01:45:15;14.37;;;10.57;;
16593;SDS011;8410;52.532;13.336;2024-01-15T01:47:43;14.13;;;10.30;;
16593;SDS011;8410;52.532;13.336;2024-01-15T01:50:10;12.37;;;8.50;;
16593;SDS011;8410;52.532;13.336;2024-01-15T01:52:39;13.17;;;10.93;;
16593;SDS011;8410;52.532;13.336;2024-01-15T01:55:08;12.47;;;11.17;;
16593;SDS011;8410;52.532;13.336;2024-01-15T01:57:37;11.10;;;9.40;;
16593;SDS011;8410;52.532;13.336;2024-01-15T02:00:07;13.63;;;10.17;;
16593;SDS011;8410;52.532;13.336;2024-01-15T02:02:35;12.13;;;10.47;;
16593;SDS011;8410;52.532;13.336;2024-01-15T02:05:03;12.70;;;10.87;;
16593;SDS011;8410;52.532;13.336;2024-01-15T02:07:34;11.80;;;10.07;;
16593;SDS011;8410;52.532;13.336;2024-01-15T02:10:02;13.17;;;10.13;;
16593;SDS011;8410;52.532;13.336;2024-01-15T02:12:29;15.87;;;10.90;;
16593;SDS011;8410;52.532;13.336;2024-01-15T02:14:57;11.63;;;9.50;;
16593;SDS011;8410;52.532;13.336;2024-01-15T02:17:26;10.83;;;9.37;;
16593;SDS011;8410;52.532;13.336;2024-01-15T02:19:53;11.80;;;8.57;;
16593;SDS011;8410;52.532;13.336;2024-01-15T02:22:21;11.60;;;8.27;;
16593;SDS011;8410;52.532;13.336;2024-01-15T02:24:50;11.30;;;8.60;;
16593;SDS011;8410;52.532;13.336;2024-01-15T02:27:19;11.80;;;9.07;;
16593;SDS011;8410;52.532;13.336;2024-01-15T02:29:47;13.50;;;7.87;;
16593;SDS011;8410;52.532;13.336;2024-01-15T02:32:15;10.37;;;8.20;;
16593;SDS011;8410;52.532;13.336;2024-01-15T02:34:43;9.73;;;7.83;;
16593;SDS011;8410;52.532;13.336;2024-01-15T02:37:11;8.90;;;7.13;;
16593;SDS011;8410;52.532;13.336;2024-01-15T02:39:38;10.90;;;7.67;;
16593;SDS011;8410;52.532;13.336;2024-01-15T02:42:07;9.87;;;7.37;;
16593;SDS011;8410;52.532;13.336;2024-01-15T02:44:35;9.10;;;7.03;;
16593;SDS011;8410;52.532;13.336;2024-01-15T02:47:02;11.77;;;7.67;;
16593;SDS011;8410;52.532;13.336;2024-01-15T02:49:31;9.23;;;7.20;;
16593;SDS011;8410;52.532;13.336;2024-01-15T02:51:59;10.27;;;7.53;;
16593;SDS011;8410;52.532;13.336;2024-01-15T02:54:26;7.87;;;6.53;;
16593;SDS011;8410;52.532;13.336;2024-01-15T02:56:54;8.23;;;7.03;;
16593;SDS011;8410;52.532;13.336;2024-01-15T02:59:23;10.33;;;7.20;;
16593;SDS011;8410;52.532;13.336;2024-01-15T03:01:50;9.00;;;6.73;;
16593;SDS011;8410;52.532;13.336;2024-01-15T03:04:18;8.60;;;7.03;;
16593;SDS011;8410;52.532;13.336;2024-01-15T03:06:45;8.97;;;6.93;;
16593;SDS011;8410;52.532;13.336;2024-01-15T03:09:13;9.97;;;6.97;;
16593;SDS011;8410;52.532;13.336;2024-01-15T03:11:40;11.37;;;7.03;;
16593;SDS011;8410;52.532;13.336;2024-01-15T03:14:08;11.10;;;5.70;;
16593;SDS011;8410;52.532;13.336;2024-01-15T03:16:37;8.27;;;5.13;;
16593;SDS011;8410;52.532;13.336;2024-01-15T03:19:05;8.67;;;6.90;;
16593;SDS011;8410;52.532;13.336;2024-01-15T03:21:32;8.77;;;6.90;;
16593;SDS011;8410;52.532;13.336;2024-01-15T03:24:00;7.33;;;5.90;;
16593;SDS011;8410;52.532;13.336;2024-01-15T03:26:27;8.73;;;6.17;;
16593;SDS011;8410;52.532;13.336;2024-01-15T03:28:55;8.77;;;6.33;;
16593;SDS011;8410;52.532;13.336;2024-01-15T03:31:23;9.03;;;6.27;;
16593;SDS011;8410;52.532;13.336;2024-01-15T03:33:52;8.83;;;6.60;;
16593;SDS011;8410;52.532;13.336;2024-01-15T03:36:19;8.47;;;6.07;;
16593;SDS011;8410;52.532;13.336;2024-01-15T03:38:47;6.43;;;5.57;;
16593;SDS011;8410;52.532;13.336;2024-01-15T03:41:14;7.03;;;5.67;;
16593;SDS011;8410;52.532;13.336;2024-01-15T03:43:42;13.90;;;6.27;;
16593;SDS011;8410;52.532;13.336;2024-01-15T03:46:10;7.27;;;6.03;;
16593;SDS011;8410;52.532;13.336;2024-01-15T03:48:37;8.30;;;5.50;;
16593;SDS011;8410;52.532;13.336;2024-01-15T03:51:06;11.37;;;5.67;;
16593;SDS011;8410;52.532;13.336;2024-01-15T03:53:34;10.23;;;5.60;;
16593;SDS011;8410;52.532;13.336;2024-01-15T03:56:01;7.63;;;5.27;;
16593;SDS011;8410;52.532;13.336;2024-01-15T03:58:29;9.13;;;6.53;;
16593;SDS011;8410;52.532;13.336;2024-01-15T04:00:56;8.80;;;5.73;;
16593;SDS011;8410;52.532;13.336;2024-01-15T04:03:24;8.80;;;5.00;;
16593;SDS011;8410;52.532;13.336;2024-01-15T04:05:51;8.63;;;5.60;;
16593;SDS011;8410;52.532;13.336;2024-01-15T04:08:20;9.73;;;6.27;;
16593;SDS011;8410;52.532;13.336;2024-01-15T04:10:48;10.97;;;6.10;;
16593;SDS011;8410;52.532;13.336;2024-01-15T04:13:15;8.47;;;5.93;;
16593;SDS011;8410;52.532;13.336;2024-01-15T04:15:43;8.30;;;5.20;;
16593;SDS011;8410;52.532;13.336;2024-01-15T04:18:11;9.07;;;5.67;;
16593;SDS011;8410;52.532;13.336;2024-01-15T04:20:38;9.30;;;5.27;;
16593;SDS011;8410;52.532;13.336;2024-01-15T04:23:06;8.53;;;5.20;;
16593;SDS011;8410;52.532;13.336;2024-01-15T04:25:35;8.90;;;5.60;;
16593;SDS011;8410;52.532;13.336;2024-01-15T04:28:02;7.77;;;4.57;;
16593;SDS011;8410;52.532;13.336;2024-01-15T04:30:30;11.33;;;5.33;;
16593;SDS011;8410;52.532;13.336;2024-01-15T04:32:58;10.30;;;5.17;;
16593;SDS011;8410;52.532;13.336;2024-01-15T04:35:26;8.53;;;4.43;;
16593;SDS011;8410;52.532;13.336;2024-01-15T04:37:53;5.93;;;3.90;;
16593;SDS011;8410;52.532;13.336;2024-01-15T04:40:21;7.80;;;5.27;;
16593;SDS011;8410;52.532;13.336;2024-01-15T04:42:50;7.97;;;4.70;;
16593;SDS011;8410;52.532;13.336;2024-01-15T04:45:17;7.47;;;3.73;;
16593;SDS011;8410;52.532;13.336;2024-01-15T04:47:46;8.53;;;3.93;;
16593;SDS011;8410;52.532;13.336;2024-01-15T04:50:14;8.07;;;4.60;;
16593;SDS011;8410;52.532;13.336;2024-01-15T04:52:43;7.10;;;3.70;;
16593;SDS011;8410;52.532;13.336;2024-01-15T04:55:11;7.43;;;4.00;;
16593;SDS011;8410;52.532;13.336;2024-01-15T04:57:39;8.63;;;4.37;;
16593;SDS011;8410;52.532;13.336;2024-01-15T05:00:08;4.97;;;3.50;;
16593;SDS011;8410;52.532;13.336;2024-01-15T05:02:39;5.60;;;3.40;;
16593;SDS011;8410;52.532;13.336;2024-01-15T05:05:07;7.20;;;3.53;;
16593;SDS011;8410;52.532;13.336;2024-01-15T05:07:35;6.70;;;3.20;;
16593;SDS011;8410;52.532;13.336;2024-01-15T05:10:02;6.73;;;3.50;;
16593;SDS011;8410;52.532;13.336;2024-01-15T05:12:30;5.20;;;2.80;;
16593;SDS011;8410;52.532;13.336;2024-01-15T05:14:58;7.17;;;3.57;;
16593;SDS011;8410;52.532;13.336;2024-01-15T05:17:27;7.53;;;2.53;;
16593;SDS011;8410;52.532;13.336;2024-01-15T05:19:54;12.07;;;4.57;;
16593;SDS011;8410;52.532;13.336;2024-01-15T05:22:22;7.17;;;3.00;;
16593;SDS011;8410;52.532;13.336;2024-01-15T05:24:51;6.57;;;2.77;;
16593;SDS011;8410;52.532;13.336;2024-01-15T05:27:19;5.33;;;2.53;;
16593;SDS011;8410;52.532;13.336;2024-01-15T05:29:47;4.53;;;2.60;;
16593;SDS011;8410;52.532;13.336;2024-01-15T05:32:14;9.87;;;4.37;;
16593;SDS011;8410;52.532;13.336;2024-01-15T05:34:43;9.93;;;4.80;;
16593;SDS011;8410;52.532;13.336;2024-01-15T05:37:10;6.93;;;2.93;;
16593;SDS011;8410;52.532;13.336;2024-01-15T05:39:38;7.63;;;2.80;;
16593;SDS011;8410;52.532;13.336;2024-01-15T05:42:06;6.23;;;2.60;;
16593;SDS011;8410;52.532;13.336;2024-01-15T05:44:34;4.20;;;2.40;;
16593;SDS011;8410;52.532;13.336;2024-01-15T05:47:02;5.00;;;2.60;;
16593;SDS011;8410;52.532;13.336;2024-01-15T05:49:30;5.67;;;2.17;;
16593;SDS011;8410;52.532;13.336;2024-01-15T05:51:59;4.67;;;1.90;;
16593;SDS011;8410;52.532;13.336;2024-01-15T05:54:27;5.67;;;2.47;;
16593;SDS011;8410;52.532;13.336;2024-01-15T05:56:55;9.57;;;3.30;;
16593;SDS011;8410;52.532;13.336;2024-01-15T05:59:23;8.10;;;2.20;;
16593;SDS011;8410;52.532;13.336;2024-01-15T06:01:51;8.27;;;2.60;;
16593;SDS011;8410;52.532;13.336;2024-01-15T06:04:19;6.20;;;2.20;;
16593;SDS011;8410;52.532;13.336;2024-01-15T06:06:47;3.93;;;2.10;;
16593;SDS011;8410;52.532;13.336;2024-01-15T06:09:16;8.13;;;2.63;;
16593;SDS011;8410;52.532;13.336;2024-01-15T06:11:43;6.50;;;2.63;;
16593;SDS011;8410;52.532;13.336;2024-01-15T06:14:11;4.73;;;2.17;;
16593;SDS011;8410;52.532;13.336;2024-01-15T06:16:39;11.07;;;2.57;;
16593;SDS011;8410;52.532;13.336;2024-01-15T06:19:06;9.13;;;2.53;;
16593;SDS011;8410;52.532;13.336;2024-01-15T06:21:34;5.07;;;1.83;;
16593;SDS011;8410;52.532;13.336;2024-01-15T06:24:02;6.13;;;2.00;;
16593;SDS011;8410;52.532;13.336;2024-01-15T06:26:31;5.63;;;2.00;;
16593;SDS011;8410;52.532;13.336;2024-01-15T06:28:59;8.40;;;1.93;;
16593;SDS011;8410;52.532;13.336;2024-01-15T06:31:26;7.23;;;2.50;;
16593;SDS011;8410;52.532;13.336;2024-01-15T06:33:55;7.83;;;2.00;;
16593;SDS011;8410;52.532;13.336;2024-01-15T06:36:22;9.47;;;2.23;;
16593;SDS011;8410;52.532;13.336;2024-01-15T06:38:50;6.37;;;2.00;;
16593;SDS011;8410;52.532;13.336;2024-01-15T06:41:17;6.33;;;2.10;;
16593;SDS011;8410;52.532;13.336;2024-01-15T06:43:46;6.10;;;2.03;;
16593;SDS011;8410;52.532;13.336;2024-01-15T06:46:19;5.97;;;2.47;;
16593;SDS011;8410;52.532;13.336;2024-01-15T06:48:47;8.67;;;2.00;;
16593;SDS011;8410;52.532;13.336;2024-01-15T06:51:15;6.87;;;2.17;;
16593;SDS011;8410;52.532;13.336;2024-01-15T06:53:43;6.17;;;1.63;;
16593;SDS011;8410;52.532;13.336;2024-01-15T06:56:10;7.13;;;2.70;;
16593;SDS011;8410;52.532;13.336;2024-01-15T06:58:38;7.67;;;1.90;;
16593;SDS011;8410;52.532;13.336;2024-01-15T07:01:07;8.23;;;2.03;;
16593;SDS011;8410;52.532;13.336;2024-01-15T07:03:35;4.87;;;1.60;;
16593;SDS011;8410;52.532;13.336;2024-01-15T07:06:03;3.37;;;1.77;;
16593;SDS011;8410;52.532;13.336;2024-01-15T07:08:30;10.77;;;2.23;;
16593;SDS011;8410;52.532;13.336;2024-01-15T07:10:58;7.07;;;1.50;;
16593;SDS011;8410;52.532;13.336;2024-01-15T07:13:25;9.50;;;2.57;;
16593;SDS011;8410;52.532;13.336;2024-01-15T07:15:53;8.57;;;1.63;;
16593;SDS011;8410;52.532;13.336;2024-01-15T07:18:22;6.10;;;1.70;;
16593;SDS011;8410;52.532;13.336;2024-01-15T07:20:50;5.87;;;1.83;;
16593;SDS011;8410;52.532;13.336;2024-01-15T07:23:17;6.57;;;1.80;;
16593;SDS011;8410;52.532;13.336;2024-01-15T07:25:45;7.73;;;1.87;;
16593;SDS011;8410;52.532;13.336;2024-01-15T07:28:13;6.20;;;1.43;;
16593;SDS011;8410;52.532;13.336;2024-01-15T07:30:40;6.30;;;1.60;;
16593;SDS011;8410;52.532;13.336;2024-01-15T07:33:08;8.43;;;1.83;;
16593;SDS011;8410;52.532;13.336;2024-01-15T07:35:37;7.80;;;1.77;;
16593;SDS011;8410;52.532;13.336;2024-01-15T07:38:05;6.47;;;2.20;;
16593;SDS011;8410;52.532;13.336;2024-01-15T07:40:32;6.87;;;1.67;;
16593;SDS011;8410;52.532;13.336;2024-01-15T07:42:59;13.13;;;2.10;;
16593;SDS011;8410;52.532;13.336;2024-01-15T07:45:27;8.43;;;1.60;;
16593;SDS011;8410;52.532;13.336;2024-01-15T07:47:55;7.17;;;1.70;;
16593;SDS011;8410;52.532;13.336;2024-01-15T07:50:22;11.43;;;2.10;;
16593;SDS011;8410;52.532;13.336;2024-01-15T07:52:51;10.00;;;2.47;;
16593;SDS011;8410;52.532;13.336;2024-01-15T07:55:19;8.57;;;2.13;;
16593;SDS011;8410;52.532;13.336;2024-01-15T07:57:47;9.03;;;2.73;;
16593;SDS011;8410;52.532;13.336;2024-01-15T08:00:27;9.43;;;1.87;;
16593;SDS011;8410;52.532;13.336;2024-01-15T08:02:55;6.60;;;1.53;;
16593;SDS011;8410;52.532;13.336;2024-01-15T08:05:23;7.00;;;1.93;;
16593;SDS011;8410;52.532;13.336;2024-01-15T08:07:51;4.50;;;2.23;;
16593;SDS011;8410;52.532;13.336;2024-01-15T08:10:24;7.07;;;1.80;;
16593;SDS011;8410;52.532;13.336;2024-01-15T08:12:51;10.07;;;2.07;;
16593;SDS011;8410;52.532;13.336;2024-01-15T08:15:19;9.00;;;2.13;;
16593;SDS011;8410;52.532;13.336;2024-01-15T08:17:46;5.93;;;2.00;;
16593;SDS011;8410;52.532;13.336;2024-01-15T08:20:14;5.40;;;2.13;;
16593;SDS011;8410;52.532;13.336;2024-01-15T08:22:43;10.57;;;2.07;;
16593;SDS011;8410;52.532;13.336;2024-01-15T08:25:11;5.73;;;1.63;;
16593;SDS011;8410;52.532;13.336;2024-01-15T08:27:39;10.13;;;2.27;;
16593;SDS011;8410;52.532;13.336;2024-01-15T08:30:07;9.27;;;1.80;;
16593;SDS011;8410;52.532;13.336;2024-01-15T08:32:36;7.93;;;1.80;;
16593;SDS011;8410;52.532;13.336;2024-01-15T08:35:08;10.70;;;2.30;;
16593;SDS011;8410;52.532;13.336;2024-01-15T08:37:36;9.03;;;1.80;;
16593;SDS011;8410;52.532;13.336;2024-01-15T08:40:04;4.50;;;1.60;;
16593;SDS011;8410;52.532;13.336;2024-01-15T08:42:34;7.50;;;1.90;;
16593;SDS011;8410;52.532;13.336;2024-01-15T08:45:02;8.17;;;1.80;;
16593;SDS011;8410;52.532;13.336;2024-01-15T08:47:30;6.67;;;1.80;;
16593;SDS011;8410;52.532;13.336;2024-01-15T08:49:58;4.47;;;1.90;;
16593;SDS011;8410;52.532;13.336;2024-01-15T08:52:26;5.03;;;1.67;;
16593;SDS011;8410;52.532;13.336;2024-01-15T08:54:53;7.37;;;1.50;;
16593;SDS011;8410;52.532;13.336;2024-01-15T08:57:21;4.87;;;1.70;;
16593;SDS011;8410;52.532;13.336;2024-01-15T08:59:50;6.80;;;2.10;;
16593;SDS011;8410;52.532;13.336;2024-01-15T09:02:21;4.83;;;2.30;;
16593;SDS011;8410;52.532;13.336;2024-01-15T09:04:48;5.47;;;1.90;;
16593;SDS011;8410;52.532;13.336;2024-01-15T09:07:16;6.90;;;2.00;;
16593;SDS011;8410;52.532;13.336;2024-01-15T09:09:43;4.60;;;1.50;;
16593;SDS011;8410;52.532;13.336;2024-01-15T09:12:11;5.87;;;1.93;;
16593;SDS011;8410;52.532;13.336;2024-01-15T09:14:41;4.27;;;1.53;;
16593;SDS011;8410;52.532;13.336;2024-01-15T09:17:10;7.00;;;1.60;;
16593;SDS011;8410;52.532;13.336;2024-01-15T09:19:38;5.83;;;1.70;;
16593;SDS011;8410;52.532;13.336;2024-01-15T09:22:06;7.30;;;3.23;;
16593;SDS011;8410;52.532;13.336;2024-01-15T09:24:34;6.57;;;2.10;;
16593;SDS011;8410;52.532;13.336;2024-01-15T09:27:01;6.63;;;2.27;;
16593;SDS011;8410;52.532;13.336;2024-01-15T09:29:29;6.10;;;2.53;;
16593;SDS011;8410;52.532;13.336;2024-01-15T09:31:57;8.93;;;4.03;;
16593;SDS011;8410;52.532;13.336;2024-01-15T09:34:26;8.63;;;4.40;;
16593;SDS011;8410;52.532;13.336;2024-01-15T09:36:54;6.50;;;1.90;;
16593;SDS011;8410;52.532;13.336;2024-01-15T09:39:21;7.83;;;2.23;;
16593;SDS011;8410;52.532;13.336;2024-01-15T09:41:49;7.57;;;2.80;;
16593;SDS011;8410;52.532;13.336;2024-01-15T09:44:17;5.83;;;2.20;;
16593;SDS011;8410;52.532;13.336;2024-01-15T09:46:44;8.50;;;3.13;;
16593;SDS011;8410;52.532;13.336;2024-01-15T09:49:16;6.63;;;2.07;;
16593;SDS011;8410;52.532;13.336;2024-01-15T09:51:45;6.53;;;3.10;;
16593;SDS011;8410;52.532;13.336;2024-01-15T09:54:28;7.43;;;2.07;;
16593;SDS011;8410;52.532;13.336;2024-01-15T09:56:55;6.57;;;1.87;;
16593;SDS011;8410;52.532;13.336;2024-01-15T09:59:23;3.93;;;1.20;;
16593;SDS011;8410;52.532;13.336;2024-01-15T10:01:51;5.60;;;1.97;;
16593;SDS011;8410;52.532;13.336;2024-01-15T10:04:21;6.80;;;1.60;;
16593;SDS011;8410;52.532;13.336;2024-01-15T10:06:51;5.67;;;1.50;;
16593;SDS011;8410;52.532;13.336;2024-01-15T10:09:19;5.77;;;1.70;;
16593;SDS011;8410;52.532;13.336;2024-01-15T10:11:47;5.87;;;1.50;;
16593;SDS011;8410;52.532;13.336;2024-01-15T10:14:14;5.97;;;1.83;;
16593;SDS011;8410;52.532;13.336;2024-01-15T10:16:42;5.40;;;1.70;;
16593;SDS011;8410;52.532;13.336;2024-01-15T10:19:09;5.70;;;1.60;;
16593;SDS011;8410;52.532;13.336;2024-01-15T10:21:38;2.67;;;1.53;;
16593;SDS011;8410;52.532;13.336;2024-01-15T10:24:08;3.50;;;1.43;;
16593;SDS011;8410;52.532;13.336;2024-01-15T10:26:36;3.17;;;1.10;;
16593;SDS011;8410;52.532;13.336;2024-01-15T10:29:03;2.30;;;1.50;;
16593;SDS011;8410;52.532;13.336;2024-01-15T10:31:31;3.67;;;1.63;;
16593;SDS011;8410;52.532;13.336;2024-01-15T10:34:09;3.63;;;1.47;;
16593;SDS011;8410;52.532;13.336;2024-01-15T10:36:38;7.07;;;1.50;;
16593;SDS011;8410;52.532;13.336;2024-01-15T10:39:08;6.17;;;1.50;;
16593;SDS011;8410;52.532;13.336;2024-01-15T10:41:36;3.87;;;1.30;;
16593;SDS011;8410;52.532;13.336;2024-01-15T10:44:03;7.00;;;2.60;;
16593;SDS011;8410;52.532;13.336;2024-01-15T10:46:31;4.23;;;1.30;;
16593;SDS011;8410;52.532;13.336;2024-01-15T10:49:00;3.47;;;1.40;;
16593;SDS011;8410;52.532;13.336;2024-01-15T10:51:29;4.23;;;1.47;;
16593;SDS011;8410;52.532;13.336;2024-01-15T10:53:56;4.77;;;1.67;;
16593;SDS011;8410;52.532;13.336;2024-01-15T10:56:26;3.03;;;1.60;;
16593;SDS011;8410;52.532;13.336;2024-01-15T10:58:54;4.03;;;1.70;;
16593;SDS011;8410;52.532;13.336;2024-01-15T11:01:26;4.03;;;1.60;;
16593;SDS011;8410;52.532;13.336;2024-01-15T11:03:56;3.33;;;1.50;;
16593;SDS011;8410;52.532;13.336;2024-01-15T11:06:25;4.80;;;1.70;;
16593;SDS011;8410;52.532;13.336;2024-01-15T11:08:55;3.57;;;1.47;;
16593;SDS011;8410;52.532;13.336;2024-01-15T11:11:23;6.20;;;1.67;;
16593;SDS011;8410;52.532;13.336;2024-01-15T11:13:52;2.10;;;1.10;;
16593;SDS011;8410;52.532;13.336;2024-01-15T11:16:19;2.27;;;1.20;;
16593;SDS011;8410;52.532;13.336;2024-01-15T11:19:02;1.60;;;1.23;;
16593;SDS011;8410;52.532;13.336;2024-01-15T11:21:32;4.10;;;1.77;;
16593;SDS011;8410;52.532;13.336;2024-01-15T11:24:01;2.37;;;1.07;;
16593;SDS011;8410;52.532;13.336;2024-01-15T11:26:34;2.47;;;0.93;;
16593;SDS011;8410;52.532;13.336;2024-01-15T11:29:05;1.67;;;1.23;;
16593;SDS011;8410;52.532;13.336;2024-01-15T11:34:50;2.63;;;1.03;;
16593;SDS011;8410;52.532;13.336;2024-01-15T11:37:25;3.77;;;1.40;;
16593;SDS011;8410;52.532;13.336;2024-01-15T11:39:53;2.60;;;1.30;;
16593;SDS011;8410;52.532;13.336;2024-01-15T11:42:22;3.23;;;1.33;;
16593;SDS011;8410;52.532;13.336;2024-01-15T11:44:51;1.50;;;1.10;;
16593;SDS011;8410;52.532;13.336;2024-01-15T11:47:33;2.17;;;1.30;;
16593;SDS011;8410;52.532;13.336;2024-01-15T11:50:22;2.33;;;1.30;;
16593;SDS011;8410;52.532;13.336;2024-01-15T11:52:54;1.73;;;1.50;;
16593;SDS011;8410;52.532;13.336;2024-01-15T11:55:33;4.37;;;1.67;;
16593;SDS011;8410;52.532;13.336;2024-01-15T11:58:02;3.03;;;1.70;;
16593;SDS011;8410;52.532;13.336;2024-01-15T12:00:40;2.73;;;1.40;;
16593;SDS011;8410;52.532;13.336;2024-01-15T12:03:09;5.70;;;2.07;;
16593;SDS011;8410;52.532;13.336;2024-01-15T12:05:37;3.33;;;2.23;;
16593;SDS011;8410;52.532;13.336;2024-01-15T12:08:05;3.20;;;1.87;;
16593;SDS011;8410;52.532;13.336;2024-01-15T12:10:37;2.40;;;1.70;;
16593;SDS011;8410;52.532;13.336;2024-01-15T12:13:09;3.10;;;1.90;;
16593;SDS011;8410;52.532;13.336;2024-01-15T12:15:40;2.03;;;1.27;;
16593;SDS011;8410;52.532;13.336;2024-01-15T12:18:10;3.67;;;1.63;;
16593;SDS011;8410;52.532;13.336;2024-01-15T12:20:40;3.53;;;1.70;;
16593;SDS011;8410;52.532;13.336;2024-01-15T12:23:09;4.43;;;1.87;;
16593;SDS011;8410;52.532;13.336;2024-01-15T12:25:38;1.57;;;1.47;;
16593;SDS011;8410;52.532;13.336;2024-01-15T12:28:06;2.33;;;1.33;;
16593;SDS011;8410;52.532;13.336;2024-01-15T12:30:34;3.17;;;1.53;;
16593;SDS011;8410;52.532;13.336;2024-01-15T12:33:06;2.23;;;1.17;;
16593;SDS011;8410;52.532;13.336;2024-01-15T12:35:36;2.33;;;1.33;;
16593;SDS011;8410;52.532;13.336;2024-01-15T12:38:04;3.13;;;1.63;;
16593;SDS011;8410;52.532;13.336;2024-01-15T12:40:32;2.60;;;1.70;;
16593;SDS011;8410;52.532;13.336;2024-01-15T12:43:03;3.70;;;1.70;;
16593;SDS011;8410;52.532;13.336;2024-01-15T12:45:32;2.70;;;1.43;;
16593;SDS011;8410;52.532;13.336;2024-01-15T12:47:59;3.47;;;1.40;;
16593;SDS011;8410;52.532;13.336;2024-01-15T12:50:28;3.10;;;1.43;;
16593;SDS011;8410;52.532;13.336;2024-01-15T12:52:56;3.67;;;1.40;;
16593;SDS011;8410;52.532;13.336;2024-01-15T12:55:25;1.63;;;1.40;;
16593;SDS011;8410;52.532;13.336;2024-01-15T12:57:53;1.80;;;1.00;;
16593;SDS011;8410;52.532;13.336;2024-01-15T13:00:22;1.97;;;1.77;;
16593;SDS011;8410;52.532;13.336;2024-01-15T13:02:51;2.57;;;1.37;;
16593;SDS011;8410;52.532;13.336;2024-01-15T13:05:20;1.33;;;1.10;;
16593;SDS011;8410;52.532;13.336;2024-01-15T13:07:49;1.57;;;1.13;;
16593;SDS011;8410;52.532;13.336;2024-01-15T13:10:17;1.83;;;1.73;;
16593;SDS011;8410;52.532;13.336;2024-01-15T13:12:44;2.33;;;1.63;;
16593;SDS011;8410;52.532;13.336;2024-01-15T13:15:12;4.27;;;1.87;;
16593;SDS011;8410;52.532;13.336;2024-01-15T13:17:41;2.90;;;1.63;;
16593;SDS011;8410;52.532;13.336;2024-01-15T13:20:10;2.43;;;1.63;;
16593;SDS011;8410;52.532;13.336;2024-01-15T13:22:38;3.23;;;1.57;;
16593;SDS011;8410;52.532;13.336;2024-01-15T13:25:08;2.40;;;1.57;;
16593;SDS011;8410;52.532;13.336;2024-01-15T13:27:37;4.27;;;2.97;;
16593;SDS011;8410;52.532;13.336;2024-01-15T13:30:07;3.60;;;2.40;;
16593;SDS011;8410;52.532;13.336;2024-01-15T13:32:35;4.87;;;2.00;;
16593;SDS011;8410;52.532;13.336;2024-01-15T13:35:03;4.13;;;1.70;;
16593;SDS011;8410;52.532;13.336;2024-01-15T13:37:36;2.57;;;1.70;;
16593;SDS011;8410;52.532;13.336;2024-01-15T13:40:04;4.20;;;1.80;;
16593;SDS011;8410;52.532;13.336;2024-01-15T13:42:35;2.33;;;1.80;;
16593;SDS011;8410;52.532;13.336;2024-01-15T13:45:04;2.00;;;1.80;;
16593;SDS011;8410;52.532;13.336;2024-01-15T13:47:34;2.33;;;1.50;;
16593;SDS011;8410;52.532;13.336;2024-01-15T13:50:02;5.53;;;1.57;;
16593;SDS011;8410;52.532;13.336;2024-01-15T13:52:30;2.17;;;1.30;;
16593;SDS011;8410;52.532;13.336;2024-01-15T13:54:57;3.87;;;1.53;;
16593;SDS011;8410;52.532;13.336;2024-01-15T13:57:25;2.50;;;1.47;;
16593;SDS011;8410;52.532;13.336;2024-01-15T13:59:54;3.57;;;2.27;;
16593;SDS011;8410;52.532;13.336;2024-01-15T14:02:22;4.93;;;1.60;;
16593;SDS011;8410;52.532;13.336;2024-01-15T14:04:51;5.50;;;1.87;;
16593;SDS011;8410;52.532;13.336;2024-01-15T14:07:20;3.87;;;2.13;;
16593;SDS011;8410;52.532;13.336;2024-01-15T14:09:47;3.07;;;1.57;;
16593;SDS011;8410;52.532;13.336;2024-01-15T14:12:15;3.83;;;1.83;;
16593;SDS011;8410;52.532;13.336;2024-01-15T14:14:43;4.53;;;1.40;;
16593;SDS011;8410;52.532;13.336;2024-01-15T14:17:12;2.37;;;1.50;;
16593;SDS011;8410;52.532;13.336;2024-01-15T14:19:39;3.30;;;1.20;;
16593;SDS011;8410;52.532;13.336;2024-01-15T14:22:07;6.77;;;1.50;;
16593;SDS011;8410;52.532;13.336;2024-01-15T14:24:35;3.37;;;1.40;;
16593;SDS011;8410;52.532;13.336;2024-01-15T14:27:03;4.87;;;1.80;;
16593;SDS011;8410;52.532;13.336;2024-01-15T14:29:31;4.20;;;1.40;;
16593;SDS011;8410;52.532;13.336;2024-01-15T14:31:59;3.63;;;1.40;;
16593;SDS011;8410;52.532;13.336;2024-01-15T14:34:29;3.27;;;1.50;;
16593;SDS011;8410;52.532;13.336;2024-01-15T14:36:56;2.83;;;1.10;;
16593;SDS011;8410;52.532;13.336;2024-01-15T14:39:24;4.53;;;1.43;;
16593;SDS011;8410;52.532;13.336;2024-01-15T14:41:52;3.47;;;1.20;;
16593;SDS011;8410;52.532;13.336;2024-01-15T14:44:20;1.30;;;1.00;;
16593;SDS011;8410;52.532;13.336;2024-01-15T14:46:48;2.27;;;1.20;;
16593;SDS011;8410;52.532;13.336;2024-01-15T14:49:16;3.07;;;1.40;;
16593;SDS011;8410;52.532;13.336;2024-01-15T14:51:45;1.67;;;1.27;;
16593;SDS011;8410;52.532;13.336;2024-01-15T14:54:14;2.20;;;1.20;;